Time,TemperatureF,DewpointF,PressureIn,WindDirection,WindDirectionDegrees,WindSpeedMPH,WindSpeedGustMPH,Humidity,HourlyPrecipIn,Conditions,Clouds,dailyrainin,SoftwareType,DateUTC
2013-10-28 00:02:00,45.0,30.7,30.10,South,180,0.0,0.0,57,0.00,,---,0.00,VWS V14.01,2013-10-28 05:02:00,
2013-10-28 00:09:00,44.9,30.6,30.10,SW,229,0.0,0.0,57,0.00,,---,0.00,VWS V14.01,2013-10-28 05:09:00,
2013-10-28 00:17:00,44.7,32.1,30.11,South,171,0.0,0.0,61,0.00,,---,0.00,VWS V14.01,2013-10-28 05:17:00,
2013-10-28 00:24:00,44.5,30.7,30.11,South,171,0.0,0.0,58,0.00,,---,0.00,VWS V14.01,2013-10-28 05:24:00,
2013-10-28 00:32:00,44.3,30.9,30.12,South,171,0.0,0.0,59,0.00,,---,0.00,VWS V14.01,2013-10-28 05:32:00,
2013-10-28 00:39:00,44.0,31.0,30.12,South,171,0.0,0.0,60,0.00,,---,0.00,VWS V14.01,2013-10-28 05:39:00,
2013-10-28 00:47:00,43.4,31.3,30.12,South,171,0.0,0.0,62,0.00,,---,0.00,VWS V14.01,2013-10-28 05:47:00,
2013-10-28 00:54:00,42.8,31.1,30.12,South,171,0.0,0.0,63,0.00,,---,0.00,VWS V14.01,2013-10-28 05:54:00,
2013-10-28 01:02:00,42.3,31.4,30.12,South,171,0.0,0.0,65,0.00,,---,0.00,VWS V14.01,2013-10-28 06:02:00,
2013-10-28 01:09:00,41.9,31.4,30.12,South,171,0.0,0.0,66,0.00,,---,0.00,VWS V14.01,2013-10-28 06:09:00,
2013-10-28 01:17:00,41.5,31.7,30.13,South,171,0.0,0.0,68,0.00,,---,0.00,VWS V14.01,2013-10-28 06:17:00,
2013-10-28 01:24:00,41.3,31.9,30.13,South,171,0.0,0.0,69,0.00,,---,0.00,VWS V14.01,2013-10-28 06:24:00,
2013-10-28 01:32:00,41.0,31.6,30.13,South,171,0.0,0.0,69,0.00,,---,0.00,VWS V14.01,2013-10-28 06:32:00,
2013-10-28 01:39:00,40.7,31.7,30.13,South,171,0.0,0.0,70,0.00,,---,0.00,VWS V14.01,2013-10-28 06:39:00,
2013-10-28 01:47:00,40.4,31.8,30.13,South,171,0.0,0.0,71,0.00,,---,0.00,VWS V14.01,2013-10-28 06:47:00,
2013-10-28 01:54:00,40.3,32.0,30.13,South,171,0.0,0.0,72,0.00,,---,0.00,VWS V14.01,2013-10-28 06:54:00,
2013-10-28 02:02:00,40.1,31.8,30.13,South,171,0.0,0.0,72,0.00,,---,0.00,VWS V14.01,2013-10-28 07:02:00,
2013-10-28 02:09:00,40.0,32.1,30.13,South,171,0.0,0.0,73,0.00,,---,0.00,VWS V14.01,2013-10-28 07:09:00,
2013-10-28 02:17:00,39.8,31.9,30.13,South,171,0.0,0.0,73,0.00,,---,0.00,VWS V14.01,2013-10-28 07:17:00,
2013-10-28 02:24:00,39.7,31.8,30.13,South,171,0.0,0.0,73,0.00,,---,0.00,VWS V14.01,2013-10-28 07:24:00,
2013-10-28 02:32:00,39.8,31.5,30.13,South,171,0.0,0.0,72,0.00,,---,0.00,VWS V14.01,2013-10-28 07:32:00,
2013-10-28 02:39:00,40.0,31.7,30.13,South,171,0.0,0.0,72,0.00,,---,0.00,VWS V14.01,2013-10-28 07:39:00,
2013-10-28 02:47:00,40.0,31.4,30.13,South,172,0.0,0.0,71,0.00,,---,0.00,VWS V14.01,2013-10-28 07:47:00,
2013-10-28 02:54:00,40.2,31.9,30.13,South,171,0.0,0.0,72,0.00,,---,0.00,VWS V14.01,2013-10-28 07:54:00,
2013-10-28 03:02:00,40.2,31.9,30.13,South,171,0.0,0.0,72,0.00,,---,0.00,VWS V14.01,2013-10-28 08:02:00,
2013-10-28 03:09:00,40.0,32.1,30.14,South,171,0.0,0.0,73,0.00,,---,0.00,VWS V14.01,2013-10-28 08:09:00,
2013-10-28 03:17:00,39.6,32.0,30.14,South,171,0.0,0.0,74,0.00,,---,0.00,VWS V14.01,2013-10-28 08:17:00,
2013-10-28 03:24:00,39.3,32.0,30.14,South,171,0.0,0.0,75,0.00,,---,0.00,VWS V14.01,2013-10-28 08:24:00,
2013-10-28 03:32:00,39.2,32.3,30.14,South,171,0.0,0.0,76,0.00,,---,0.00,VWS V14.01,2013-10-28 08:32:00,
2013-10-28 03:39:00,38.9,32.0,30.14,South,171,0.0,0.0,76,0.00,,---,0.00,VWS V14.01,2013-10-28 08:39:00,
2013-10-28 03:47:00,38.6,32.0,30.14,South,171,0.0,0.0,77,0.00,,---,0.00,VWS V14.01,2013-10-28 08:47:00,
2013-10-28 03:54:00,38.3,32.0,30.14,South,172,0.0,0.0,78,0.00,,---,0.00,VWS V14.01,2013-10-28 08:54:00,
2013-10-28 04:02:00,38.2,32.3,30.14,South,171,0.0,0.0,79,0.00,,---,0.00,VWS V14.01,2013-10-28 09:02:00,
2013-10-28 04:09:00,38.2,32.0,30.15,South,171,0.0,0.0,78,0.00,,---,0.00,VWS V14.01,2013-10-28 09:09:00,
2013-10-28 04:17:00,38.3,32.0,30.15,South,171,0.0,0.0,78,0.00,,---,0.00,VWS V14.01,2013-10-28 09:17:00,
2013-10-28 04:24:00,38.4,32.2,30.15,South,171,0.0,0.0,78,0.00,,---,0.00,VWS V14.01,2013-10-28 09:24:00,
2013-10-28 04:32:00,38.6,32.0,30.15,South,172,0.0,0.0,77,0.00,,---,0.00,VWS V14.01,2013-10-28 09:32:00,
2013-10-28 04:39:00,38.7,31.5,30.15,South,171,0.0,0.0,75,0.00,,---,0.00,VWS V14.01,2013-10-28 09:39:00,
2013-10-28 04:47:00,38.8,31.9,30.16,South,172,0.0,0.0,76,0.00,,---,0.00,VWS V14.01,2013-10-28 09:47:00,
2013-10-28 04:54:00,38.8,31.9,30.16,SSE,153,0.0,0.0,76,0.00,,---,0.00,VWS V14.01,2013-10-28 09:54:00,
2013-10-28 05:02:00,38.8,31.9,30.16,SSE,153,0.0,0.0,76,0.00,,---,0.00,VWS V14.01,2013-10-28 10:02:00,
2013-10-28 05:10:00,38.7,31.8,30.16,SSE,153,0.0,0.0,76,0.00,,---,0.00,VWS V14.01,2013-10-28 10:10:00,
2013-10-28 05:17:00,38.7,31.8,30.17,SSE,154,0.0,0.0,76,0.00,,---,0.00,VWS V14.01,2013-10-28 10:17:00,
2013-10-28 05:25:00,38.7,32.1,30.17,SSE,153,0.0,0.0,77,0.00,,---,0.00,VWS V14.01,2013-10-28 10:25:00,
2013-10-28 05:32:00,38.5,31.9,30.18,SSE,153,0.0,0.0,77,0.00,,---,0.00,VWS V14.01,2013-10-28 10:32:00,
2013-10-28 05:40:00,38.4,31.8,30.18,SSE,153,0.0,0.0,77,0.00,,---,0.00,VWS V14.01,2013-10-28 10:40:00,
2013-10-28 05:47:00,38.3,31.7,30.18,SSE,153,0.0,0.0,77,0.00,,---,0.00,VWS V14.01,2013-10-28 10:47:00,
2013-10-28 05:55:00,38.3,32.0,30.18,SSE,154,0.0,0.0,78,0.00,,---,0.00,VWS V14.01,2013-10-28 10:55:00,
2013-10-28 06:02:00,38.3,31.7,30.19,SSE,153,0.0,0.0,77,0.00,,---,0.00,VWS V14.01,2013-10-28 11:02:00,
2013-10-28 06:10:00,38.4,31.8,30.19,SSE,154,0.0,0.0,77,0.00,,---,0.00,VWS V14.01,2013-10-28 11:10:00,
2013-10-28 06:17:00,38.6,31.7,30.18,SSE,154,0.0,0.0,76,0.00,,---,0.00,VWS V14.01,2013-10-28 11:17:00,
2013-10-28 06:25:00,38.6,32.0,30.19,SSE,153,0.0,0.0,77,0.00,,---,0.00,VWS V14.01,2013-10-28 11:25:00,
2013-10-28 06:32:00,38.5,31.9,30.19,SSE,153,0.0,0.0,77,0.00,,---,0.00,VWS V14.01,2013-10-28 11:32:00,
2013-10-28 06:40:00,38.4,31.8,30.19,SSE,153,0.0,0.0,77,0.00,,---,0.00,VWS V14.01,2013-10-28 11:40:00,
2013-10-28 06:47:00,38.3,32.0,30.20,SSE,153,0.0,0.0,78,0.00,,---,0.00,VWS V14.01,2013-10-28 11:47:00,
2013-10-28 06:55:00,38.2,32.0,30.20,SSE,153,0.0,0.0,78,0.00,,---,0.00,VWS V14.01,2013-10-28 11:55:00,
2013-10-28 07:02:00,38.1,32.2,30.20,SSE,153,0.0,0.0,79,0.00,,---,0.00,VWS V14.01,2013-10-28 12:02:00,
2013-10-28 07:10:00,38.0,32.1,30.20,SSE,153,0.0,0.0,79,0.00,,---,0.00,VWS V14.01,2013-10-28 12:10:00,
2013-10-28 07:17:00,38.0,32.1,30.20,SSE,153,0.0,0.0,79,0.00,,---,0.00,VWS V14.01,2013-10-28 12:17:00,
2013-10-28 07:25:00,37.9,32.0,30.21,SSE,153,0.0,0.0,79,0.00,,---,0.00,VWS V14.01,2013-10-28 12:25:00,
2013-10-28 07:32:00,37.9,32.3,30.21,SSE,154,0.0,0.0,80,0.00,,---,0.00,VWS V14.01,2013-10-28 12:32:00,
2013-10-28 07:40:00,38.0,32.4,30.22,SSE,153,0.0,0.0,80,0.00,,---,0.00,VWS V14.01,2013-10-28 12:40:00,
2013-10-28 07:47:00,38.1,32.2,30.22,SSE,153,0.0,0.0,79,0.00,,---,0.00,VWS V14.01,2013-10-28 12:47:00,
2013-10-28 07:55:00,38.2,32.3,30.22,SSE,153,0.0,0.0,79,0.00,,---,0.00,VWS V14.01,2013-10-28 12:55:00,
2013-10-28 08:02:00,38.5,32.6,30.23,SSE,153,0.0,0.0,79,0.00,,---,0.00,VWS V14.01,2013-10-28 13:02:00,
2013-10-28 08:10:00,38.9,33.0,30.23,SSE,153,0.0,0.0,79,0.00,,---,0.00,VWS V14.01,2013-10-28 13:10:00,
2013-10-28 08:17:00,39.8,33.5,30.23,SSE,153,0.0,0.0,78,0.00,,---,0.00,VWS V14.01,2013-10-28 13:17:00,
2013-10-28 08:25:00,41.4,34.4,30.23,SSE,154,0.0,0.0,76,0.00,,---,0.00,VWS V14.01,2013-10-28 13:25:00,
2013-10-28 08:32:00,43.5,34.7,30.24,SSE,154,0.0,2.0,71,0.00,,---,0.00,VWS V14.01,2013-10-28 13:32:00,
2013-10-28 08:40:00,45.4,35.1,30.24,SSE,154,0.0,2.0,67,0.00,,---,0.00,VWS V14.01,2013-10-28 13:40:00,
2013-10-28 08:47:00,46.9,34.6,30.24,South,173,0.0,2.0,62,0.00,,---,0.00,VWS V14.01,2013-10-28 13:47:00,
2013-10-28 08:55:00,47.9,34.7,30.24,South,184,0.0,2.0,60,0.00,,---,0.00,VWS V14.01,2013-10-28 13:55:00,
2013-10-28 09:02:00,48.7,34.6,30.25,SSE,163,0.0,0.0,58,0.00,,---,0.00,VWS V14.01,2013-10-28 14:02:00,
2013-10-28 09:10:00,49.8,34.8,30.25,SSE,165,0.0,0.0,56,0.00,,---,0.00,VWS V14.01,2013-10-28 14:10:00,
2013-10-28 09:17:00,51.0,34.5,30.25,SSE,165,0.0,0.0,53,0.00,,---,0.00,VWS V14.01,2013-10-28 14:17:00,
2013-10-28 09:25:00,52.1,34.5,30.26,SSE,165,0.0,0.0,51,0.00,,---,0.00,VWS V14.01,2013-10-28 14:25:00,
2013-10-28 09:32:00,52.7,35.1,30.26,SE,137,0.0,3.0,51,0.00,,---,0.00,VWS V14.01,2013-10-28 14:32:00,
2013-10-28 09:40:00,53.4,34.7,30.26,South,171,1.0,5.0,49,0.00,,---,0.00,VWS V14.01,2013-10-28 14:40:00,
2013-10-28 09:47:00,54.1,35.4,30.26,South,182,0.0,4.0,49,0.00,,---,0.00,VWS V14.01,2013-10-28 14:47:00,
2013-10-28 09:55:00,54.7,34.9,30.26,South,173,0.0,4.0,47,0.00,,---,0.00,VWS V14.01,2013-10-28 14:55:00,
2013-10-28 10:02:00,55.5,35.6,30.26,SSE,165,0.0,2.0,47,0.00,,---,0.00,VWS V14.01,2013-10-28 15:02:00,
2013-10-28 10:10:00,55.9,34.9,30.26,South,175,0.0,2.0,45,0.00,,---,0.00,VWS V14.01,2013-10-28 15:10:00,
2013-10-28 10:17:00,55.4,35.5,30.27,ENE,67,3.0,5.0,47,0.00,,---,0.00,VWS V14.01,2013-10-28 15:17:00,
2013-10-28 10:25:00,55.2,35.9,30.27,ESE,116,0.0,5.0,48,0.00,,---,0.00,VWS V14.01,2013-10-28 15:25:00,
2013-10-28 10:33:00,55.0,37.2,30.27,NW,325,0.0,7.0,51,0.00,,---,0.00,VWS V14.01,2013-10-28 15:33:00,
2013-10-28 10:40:00,54.9,37.1,30.27,NNE,25,0.0,7.0,51,0.00,,---,0.00,VWS V14.01,2013-10-28 15:40:00,
2013-10-28 10:48:00,55.1,38.3,30.28,NNE,31,0.0,4.0,53,0.00,,---,0.00,VWS V14.01,2013-10-28 15:48:00,
2013-10-28 10:55:00,55.3,38.0,30.28,NE,44,0.0,4.0,52,0.00,,---,0.00,VWS V14.01,2013-10-28 15:55:00,
2013-10-28 11:03:00,55.6,38.3,30.28,SE,134,0.0,1.0,52,0.00,,---,0.00,VWS V14.01,2013-10-28 16:03:00,
2013-10-28 11:10:00,56.6,38.2,30.28,SE,143,0.0,5.0,50,0.00,,---,0.00,VWS V14.01,2013-10-28 16:10:00,
2013-10-28 11:18:00,57.3,38.3,30.28,SE,138,0.0,2.0,49,0.00,,---,0.00,VWS V14.01,2013-10-28 16:18:00,
2013-10-28 11:25:00,58.2,38.6,30.28,SE,135,0.0,2.0,48,0.00,,---,0.00,VWS V14.01,2013-10-28 16:25:00,
2013-10-28 11:33:00,58.8,37.5,30.28,ENE,59,0.0,3.0,45,0.00,,---,0.00,VWS V14.01,2013-10-28 16:33:00,
2013-10-28 11:40:00,58.8,38.1,30.28,NE,35,0.0,4.0,46,0.00,,---,0.00,VWS V14.01,2013-10-28 16:40:00,
2013-10-28 11:48:00,58.8,36.4,30.28,SE,134,0.0,6.0,43,0.00,,---,0.00,VWS V14.01,2013-10-28 16:48:00,
2013-10-28 11:55:00,59.2,37.9,30.28,East,96,0.0,6.0,45,0.00,,---,0.00,VWS V14.01,2013-10-28 16:55:00,
2013-10-28 12:03:00,58.9,37.6,30.28,NE,50,3.0,6.0,45,0.00,,---,0.00,VWS V14.01,2013-10-28 17:03:00,
2013-10-28 12:10:00,58.8,35.8,30.28,East,85,2.0,7.0,42,0.00,,---,0.00,VWS V14.01,2013-10-28 17:10:00,
2013-10-28 12:18:00,58.4,36.6,30.28,ENE,64,0.0,5.0,44,0.00,,---,0.00,VWS V14.01,2013-10-28 17:18:00,
2013-10-28 12:25:00,58.6,36.8,30.28,SE,139,0.0,5.0,44,0.00,,---,0.00,VWS V14.01,2013-10-28 17:25:00,
2013-10-28 12:33:00,58.8,36.4,30.27,ENE,72,0.0,5.0,43,0.00,,---,0.00,VWS V14.01,2013-10-28 17:33:00,
2013-10-28 12:40:00,58.7,36.3,30.27,NE,51,1.0,5.0,43,0.00,,---,0.00,VWS V14.01,2013-10-28 17:40:00,
2013-10-28 12:48:00,59.5,37.0,30.27,SSE,149,0.0,5.0,43,0.00,,---,0.00,VWS V14.01,2013-10-28 17:48:00,
2013-10-28 12:55:00,60.0,36.2,30.27,East,89,0.0,5.0,41,0.00,,---,0.00,VWS V14.01,2013-10-28 17:55:00,
2013-10-28 13:03:00,60.7,36.9,30.26,SE,135,0.0,7.0,41,0.00,,---,0.00,VWS V14.01,2013-10-28 18:03:00,
2013-10-28 13:10:00,61.0,37.2,30.26,South,189,0.0,7.0,41,0.00,,---,0.00,VWS V14.01,2013-10-28 18:10:00,
2013-10-28 13:18:00,61.3,35.5,30.26,ESE,123,8.0,13.0,38,0.00,,---,0.00,VWS V14.01,2013-10-28 18:18:00,
2013-10-28 13:25:00,61.4,35.6,30.25,ESE,117,0.0,13.0,38,0.00,,---,0.00,VWS V14.01,2013-10-28 18:25:00,
2013-10-28 13:33:00,61.8,35.3,30.25,SSE,167,1.0,8.0,37,0.00,,---,0.00,VWS V14.01,2013-10-28 18:33:00,
2013-10-28 13:40:00,62.5,35.9,30.25,South,180,0.0,8.0,37,0.00,,---,0.00,VWS V14.01,2013-10-28 18:40:00,
2013-10-28 13:48:00,63.0,36.3,30.25,NNE,26,0.0,4.0,37,0.00,,---,0.00,VWS V14.01,2013-10-28 18:48:00,
2013-10-28 13:55:00,62.7,35.4,30.25,ESE,108,5.0,7.0,36,0.00,,---,0.00,VWS V14.01,2013-10-28 18:55:00,
2013-10-28 14:03:00,62.7,35.4,30.25,East,98,1.0,8.0,36,0.00,,---,0.00,VWS V14.01,2013-10-28 19:03:00,
2013-10-28 14:10:00,62.6,34.6,30.25,ENE,74,0.0,8.0,35,0.00,,---,0.00,VWS V14.01,2013-10-28 19:10:00,
2013-10-28 14:18:00,63.4,33.8,30.24,SSE,161,4.0,5.0,33,0.00,,---,0.00,VWS V14.01,2013-10-28 19:18:00,
2013-10-28 14:25:00,64.3,33.8,30.25,SSE,148,4.0,10.0,32,0.00,,---,0.00,VWS V14.01,2013-10-28 19:25:00,
2013-10-28 14:33:00,64.6,34.1,30.24,SSE,161,4.0,9.0,32,0.00,,---,0.00,VWS V14.01,2013-10-28 19:33:00,
2013-10-28 14:40:00,64.4,33.1,30.24,SSE,150,0.0,9.0,31,0.00,,---,0.00,VWS V14.01,2013-10-28 19:40:00,
2013-10-28 14:48:00,64.0,33.6,30.24,SSE,154,0.0,6.0,32,0.00,,---,0.00,VWS V14.01,2013-10-28 19:48:00,
2013-10-28 14:55:00,64.3,33.0,30.24,SSE,150,2.0,8.0,31,0.00,,---,0.00,VWS V14.01,2013-10-28 19:55:00,
2013-10-28 15:03:00,64.3,33.0,30.24,NNE,13,1.0,7.0,31,0.00,,---,0.00,VWS V14.01,2013-10-28 20:03:00,
2013-10-28 15:10:00,64.1,33.7,30.24,ESE,123,0.0,7.0,32,0.00,,---,0.00,VWS V14.01,2013-10-28 20:10:00,
2013-10-28 15:18:00,64.3,34.6,30.24,ESE,107,2.0,7.0,33,0.00,,---,0.00,VWS V14.01,2013-10-28 20:18:00,
2013-10-28 15:25:00,63.7,34.1,30.24,NE,44,0.0,7.0,33,0.00,,---,0.00,VWS V14.01,2013-10-28 20:25:00,
2013-10-28 15:33:00,63.8,32.6,30.24,SSE,148,0.0,7.0,31,0.00,,---,0.00,VWS V14.01,2013-10-28 20:33:00,
2013-10-28 15:40:00,63.9,33.5,30.25,ESE,119,0.0,10.0,32,0.00,,---,0.00,VWS V14.01,2013-10-28 20:40:00,
2013-10-28 15:48:00,63.7,34.1,30.25,SE,138,0.0,4.0,33,0.00,,---,0.00,VWS V14.01,2013-10-28 20:48:00,
2013-10-28 15:56:00,63.9,33.5,30.25,ENE,60,0.0,5.0,32,0.00,,---,0.00,VWS V14.01,2013-10-28 20:56:00,
2013-10-28 16:03:00,63.6,33.2,30.25,SSE,152,0.0,5.0,32,0.00,,---,0.00,VWS V14.01,2013-10-28 21:03:00,
2013-10-28 16:11:00,63.8,34.2,30.25,SE,136,0.0,6.0,33,0.00,,---,0.00,VWS V14.01,2013-10-28 21:11:00,
2013-10-28 16:18:00,64.1,33.7,30.25,ESE,121,0.0,5.0,32,0.00,,---,0.00,VWS V14.01,2013-10-28 21:18:00,
2013-10-28 16:26:00,63.7,34.1,30.25,SSE,157,0.0,5.0,33,0.00,,---,0.00,VWS V14.01,2013-10-28 21:26:00,
2013-10-28 16:33:00,63.5,34.7,30.25,ESE,111,0.0,2.0,34,0.00,,---,0.00,VWS V14.01,2013-10-28 21:33:00,
2013-10-28 16:41:00,63.6,34.7,30.25,SE,133,0.0,3.0,34,0.00,,---,0.00,VWS V14.01,2013-10-28 21:41:00,
2013-10-28 16:48:00,63.6,34.7,30.26,East,97,0.0,4.0,34,0.00,,---,0.00,VWS V14.01,2013-10-28 21:48:00,
2013-10-28 16:56:00,63.4,34.6,30.26,SE,130,0.0,5.0,34,0.00,,---,0.00,VWS V14.01,2013-10-28 21:56:00,
2013-10-28 17:03:00,63.3,34.5,30.26,East,87,0.0,4.0,34,0.00,,---,0.00,VWS V14.01,2013-10-28 22:03:00,
2013-10-28 17:11:00,62.7,34.0,30.26,ENE,76,1.0,4.0,34,0.00,,---,0.00,VWS V14.01,2013-10-28 22:11:00,
2013-10-28 17:18:00,62.3,35.0,30.26,ESE,117,0.0,4.0,36,0.00,,---,0.00,VWS V14.01,2013-10-28 22:18:00,
2013-10-28 17:26:00,61.9,34.7,30.26,East,97,0.0,4.0,36,0.00,,---,0.00,VWS V14.01,2013-10-28 22:26:00,
2013-10-28 17:33:00,61.1,35.3,30.26,ESE,106,0.0,2.0,38,0.00,,---,0.00,VWS V14.01,2013-10-28 22:33:00,
2013-10-28 17:41:00,60.5,34.8,30.26,East,98,0.0,2.0,38,0.00,,---,0.00,VWS V14.01,2013-10-28 22:41:00,
2013-10-28 17:48:00,60.0,35.0,30.27,SE,126,0.0,0.0,39,0.00,,---,0.00,VWS V14.01,2013-10-28 22:48:00,
2013-10-28 17:56:00,59.5,35.2,30.27,East,82,0.0,0.0,40,0.00,,---,0.00,VWS V14.01,2013-10-28 22:56:00,
2013-10-28 18:03:00,59.0,35.3,30.27,East,89,0.0,1.0,41,0.00,,---,0.00,VWS V14.01,2013-10-28 23:03:00,
2013-10-28 18:11:00,58.3,35.3,30.27,ENE,74,0.0,1.0,42,0.00,,---,0.00,VWS V14.01,2013-10-28 23:11:00,
2013-10-28 18:18:00,57.6,35.3,30.28,East,96,0.0,1.0,43,0.00,,---,0.00,VWS V14.01,2013-10-28 23:18:00,
2013-10-28 18:26:00,57.0,35.3,30.27,ENE,57,0.0,1.0,44,0.00,,---,0.00,VWS V14.01,2013-10-28 23:26:00,
2013-10-28 18:33:00,56.5,36.0,30.28,East,90,0.0,2.0,46,0.00,,---,0.00,VWS V14.01,2013-10-28 23:33:00,
2013-10-28 18:41:00,56.0,35.5,30.28,ESE,106,0.0,2.0,46,0.00,,---,0.00,VWS V14.01,2013-10-28 23:41:00,
2013-10-28 18:48:00,55.6,35.2,30.28,ESE,123,0.0,1.0,46,0.00,,---,0.00,VWS V14.01,2013-10-28 23:48:00,
2013-10-28 18:56:00,55.4,35.0,30.29,ESE,108,0.0,1.0,46,0.00,,---,0.00,VWS V14.01,2013-10-28 23:56:00,
2013-10-28 19:04:00,55.2,35.3,30.29,NE,53,0.0,0.0,47,0.00,,---,0.00,VWS V14.01,2013-10-29 00:04:00,
2013-10-28 19:11:00,54.8,35.0,30.29,ENE,71,0.0,1.0,47,0.00,,---,0.00,VWS V14.01,2013-10-29 00:11:00,
2013-10-28 19:19:00,54.5,35.2,30.30,ESE,123,0.0,1.0,48,0.00,,---,0.00,VWS V14.01,2013-10-29 00:19:00,
2013-10-28 19:26:00,54.2,35.0,30.30,ENE,71,0.0,2.0,48,0.00,,---,0.00,VWS V14.01,2013-10-29 00:26:00,
2013-10-28 19:34:00,53.9,35.2,30.30,East,94,0.0,0.0,49,0.00,,---,0.00,VWS V14.01,2013-10-29 00:34:00,
2013-10-28 19:41:00,53.6,34.9,30.30,East,96,0.0,0.0,49,0.00,,---,0.00,VWS V14.01,2013-10-29 00:41:00,
2013-10-28 19:49:00,53.3,34.7,30.31,ENE,74,0.0,0.0,49,0.00,,---,0.00,VWS V14.01,2013-10-29 00:49:00,
2013-10-28 19:56:00,53.1,35.0,30.31,ENE,62,0.0,0.0,50,0.00,,---,0.00,VWS V14.01,2013-10-29 00:56:00,
2013-10-28 20:04:00,52.8,34.7,30.31,East,88,0.0,0.0,50,0.00,,---,0.00,VWS V14.01,2013-10-29 01:04:00,
2013-10-28 20:11:00,52.2,35.6,30.31,NNE,32,0.0,5.0,53,0.00,,---,0.00,VWS V14.01,2013-10-29 01:11:00,
2013-10-28 20:19:00,50.9,38.4,30.32,NE,49,2.0,8.0,62,0.00,,---,0.00,VWS V14.01,2013-10-29 01:19:00,
2013-10-28 20:26:00,50.1,39.6,30.32,ENE,57,1.0,12.0,67,0.00,,---,0.00,VWS V14.01,2013-10-29 01:26:00,
2013-10-28 20:34:00,49.3,40.7,30.32,East,82,4.0,8.0,72,0.00,,---,0.00,VWS V14.01,2013-10-29 01:34:00,
2013-10-28 20:41:00,48.8,40.9,30.33,NE,45,0.0,8.0,74,0.00,,---,0.00,VWS V14.01,2013-10-29 01:41:00,
2013-10-28 20:49:00,48.5,41.3,30.33,NE,36,1.0,5.0,76,0.00,,---,0.00,VWS V14.01,2013-10-29 01:49:00,
2013-10-28 20:56:00,48.2,41.7,30.33,ENE,61,4.0,6.0,78,0.00,,---,0.00,VWS V14.01,2013-10-29 01:56:00,
2013-10-28 21:04:00,48.0,41.8,30.33,NE,49,2.0,10.0,79,0.00,,---,0.00,VWS V14.01,2013-10-29 02:04:00,
2013-10-28 21:11:00,47.8,41.9,30.33,ENE,74,1.0,10.0,80,0.00,,---,0.00,VWS V14.01,2013-10-29 02:11:00,
2013-10-28 21:19:00,47.6,42.1,30.33,NNE,30,1.0,11.0,81,0.00,,---,0.00,VWS V14.01,2013-10-29 02:19:00,
2013-10-28 21:26:00,47.3,41.8,30.33,ENE,72,2.0,11.0,81,0.00,,---,0.00,VWS V14.01,2013-10-29 02:26:00,
2013-10-28 21:34:00,47.1,41.9,30.34,East,81,0.0,11.0,82,0.00,,---,0.00,VWS V14.01,2013-10-29 02:34:00,
2013-10-28 21:41:00,47.0,41.8,30.34,NE,55,6.0,11.0,82,0.00,,---,0.00,VWS V14.01,2013-10-29 02:41:00,
2013-10-28 21:49:00,46.8,41.9,30.34,ENE,57,3.0,13.0,83,0.00,,---,0.00,VWS V14.01,2013-10-29 02:49:00,
2013-10-28 21:56:00,46.6,41.7,30.34,NE,53,2.0,13.0,83,0.00,,---,0.00,VWS V14.01,2013-10-29 02:56:00,
2013-10-28 22:04:00,46.4,41.8,30.34,NE,53,0.0,8.0,84,0.00,,---,0.00,VWS V14.01,2013-10-29 03:04:00,
2013-10-28 22:11:00,46.2,41.6,30.34,East,93,1.0,8.0,84,0.00,,---,0.00,VWS V14.01,2013-10-29 03:11:00,
2013-10-28 22:19:00,46.0,41.8,30.34,ENE,63,0.0,11.0,85,0.00,,---,0.00,VWS V14.01,2013-10-29 03:19:00,
2013-10-28 22:34:00,45.6,41.4,30.34,NNE,29,0.0,7.0,85,0.00,,---,0.00,VWS V14.01,2013-10-29 03:34:00,
2013-10-28 22:41:00,45.6,41.7,30.34,ENE,69,1.0,7.0,86,0.00,,---,0.00,VWS V14.01,2013-10-29 03:41:00,
2013-10-28 22:49:00,45.4,41.5,30.34,NE,49,3.0,7.0,86,0.00,,---,0.00,VWS V14.01,2013-10-29 03:49:00,
2013-10-28 22:56:00,45.4,41.5,30.34,NNE,29,2.0,7.0,86,0.00,,---,0.00,VWS V14.01,2013-10-29 03:56:00,
2013-10-28 23:04:00,45.2,41.6,30.35,East,101,2.0,7.0,87,0.00,,---,0.00,VWS V14.01,2013-10-29 04:04:00,
2013-10-28 23:11:00,45.1,41.5,30.34,East,92,2.0,7.0,87,0.00,,---,0.00,VWS V14.01,2013-10-29 04:11:00,
2013-10-28 23:19:00,45.1,41.5,30.35,NE,56,3.0,7.0,87,0.00,,---,0.00,VWS V14.01,2013-10-29 04:19:00,
2013-10-28 23:26:00,45.0,41.4,30.35,ESE,109,0.0,7.0,87,0.00,,---,0.00,VWS V14.01,2013-10-29 04:26:00,
2013-10-28 23:27:00,45.0,41.4,30.35,ENE,72,0.0,2.0,87,0.00,,---,0.00,VWS V14.01,2013-10-29 04:27:00,
2013-10-28 23:34:00,44.8,41.2,30.35,ESE,111,0.0,6.0,87,0.00,,---,0.00,VWS V14.01,2013-10-29 04:34:00,
2013-10-28 23:41:00,44.7,41.4,30.35,NNE,20,3.0,6.0,88,0.00,,---,0.00,VWS V14.01,2013-10-29 04:41:00,
2013-10-28 23:49:00,44.6,42.4,30.34,ENE,65,0.0,7.0,92,0.00,,---,0.00,VWS V14.01,2013-10-29 04:49:00,
2013-10-28 23:56:00,44.5,41.2,30.34,NE,49,1.0,7.0,88,0.00,,---,0.00,VWS V14.01,2013-10-29 04:56:00,